Back to Top

Language: 

My Weather Underground Personal Weather Station Historical Data with Graphs...

Delerius Weather Station Historical Data
Daily Summary for October 16, 2017 Units:  English    Metric   Both
« Previous Day
Next Day »
Daily Weekly Monthly Yearly Custom
  High: Low: Average:
Temperature: 67.8 °F 55.9 °F 60 °F
Dew Point: 61.0 °F 45.0 °F 53.2 °F
Humidity: 96 % 52 % 80 %
Wind Speed: 28.0 mph 0.0 mph 10.6 mph
Wind Gust: 49.0 mph - -
Wind:- - South
Pressure: 29.97 in 29.70 in -
Precipitation: 0.00 in    
Historical Graphs
 
 
Tabular Data for October 16, 2017
Time Temperature Dew Point Pressure Wind Wind Speed Wind Gust Humidity Rainfall Rate (Hourly) solar Conditions
00:03 58.8 °F 54.0 °F 29.96 in SSE 3.0 mph 7.0 mph 84 % 0.00 in 0 W/m2
00:08 58.8 °F 54.0 °F 29.96 in SSE 3.0 mph 8.0 mph 84 % 0.00 in 0 W/m2
00:13 58.6 °F 53.8 °F 29.96 in South 3.0 mph 8.0 mph 84 % 0.00 in 0 W/m2
00:18 58.6 °F 54.1 °F 29.97 in South 3.0 mph 8.0 mph 85 % 0.00 in 0 W/m2
00:23 58.6 °F 54.1 °F 29.97 in South 4.0 mph 8.0 mph 85 % 0.00 in 0 W/m2
00:28 58.6 °F 54.1 °F 29.96 in South 4.0 mph 6.0 mph 85 % 0.00 in 0 W/m2
00:33 58.6 °F 54.1 °F 29.97 in South 3.0 mph 5.0 mph 85 % 0.00 in 0 W/m2
00:38 58.5 °F 54.0 °F 29.96 in SSE 1.0 mph 5.0 mph 85 % 0.00 in 0 W/m2
00:43 58.5 °F 54.0 °F 29.96 in Calm   3.0 mph 85 % 0.00 in 0 W/m2
00:48 58.5 °F 54.0 °F 29.96 in Calm   3.0 mph 85 % 0.00 in 0 W/m2
00:53 58.5 °F 54.0 °F 29.96 in SSE 1.0 mph 4.0 mph 85 % 0.00 in 0 W/m2
00:58 58.5 °F 54.3 °F 29.96 in SSE 1.0 mph 4.0 mph 86 % 0.00 in 0 W/m2
01:03 58.3 °F 54.1 °F 29.96 in Calm   2.0 mph 86 % 0.00 in 0 W/m2
01:08 58.3 °F 54.1 °F 29.96 in Calm   4.0 mph 86 % 0.00 in 0 W/m2
01:13 58.3 °F 54.1 °F 29.96 in SSE 1.0 mph 5.0 mph 86 % 0.00 in 0 W/m2
01:15 58.3 °F 54.1 °F 29.96 in SSE 1.0 mph 5.0 mph 86 % 0.00 in 0 W/m2
01:20 58.3 °F 54.1 °F 29.96 in SSE 1.0 mph 5.0 mph 86 % 0.00 in 0 W/m2
01:25 58.1 °F 53.9 °F 29.96 in SSE 1.0 mph 4.0 mph 86 % 0.00 in 0 W/m2
01:30 58.1 °F 54.2 °F 29.96 in SSE 2.0 mph 6.0 mph 87 % 0.00 in 0 W/m2
01:35 57.9 °F 54.1 °F 29.95 in SSE 2.0 mph 6.0 mph 87 % 0.00 in 0 W/m2
01:40 57.9 °F 54.1 °F 29.95 in SSE 1.0 mph 4.0 mph 87 % 0.00 in 0 W/m2
01:45 57.7 °F 53.9 °F 29.95 in SSE 1.0 mph 4.0 mph 87 % 0.00 in 0 W/m2
01:50 57.7 °F 53.9 °F 29.95 in ESE 1.0 mph 6.0 mph 87 % 0.00 in 0 W/m2
01:55 57.6 °F 53.7 °F 29.95 in East 3.0 mph 6.0 mph 87 % 0.00 in 0 W/m2
02:00 57.6 °F 53.7 °F 29.96 in East 2.0 mph 6.0 mph 87 % 0.00 in 0 W/m2
02:05 57.6 °F 54.0 °F 29.96 in East 3.0 mph 5.0 mph 88 % 0.00 in 0 W/m2
02:10 57.6 °F 54.0 °F 29.96 in ESE 4.0 mph 7.0 mph 88 % 0.00 in 0 W/m2
02:15 57.6 °F 54.0 °F 29.96 in SE 4.0 mph 7.0 mph 88 % 0.00 in 0 W/m2
02:20 57.4 °F 53.9 °F 29.96 in SE 2.0 mph 6.0 mph 88 % 0.00 in 0 W/m2
02:25 57.4 °F 53.9 °F 29.95 in SE 1.0 mph 5.0 mph 88 % 0.00 in 0 W/m2
02:30 57.4 °F 53.9 °F 29.95 in SE 1.0 mph 5.0 mph 88 % 0.00 in 0 W/m2
02:35 57.4 °F 53.9 °F 29.95 in SSE 2.0 mph 5.0 mph 88 % 0.00 in 0 W/m2
02:40 57.4 °F 53.9 °F 29.95 in SSE 2.0 mph 5.0 mph 88 % 0.00 in 0 W/m2
02:45 57.4 °F 53.9 °F 29.96 in South 2.0 mph 6.0 mph 88 % 0.00 in 0 W/m2
02:50 57.4 °F 53.9 °F 29.95 in SSE 1.0 mph 6.0 mph 88 % 0.00 in 0 W/m2
02:55 57.4 °F 53.9 °F 29.96 in South 1.0 mph 6.0 mph 88 % 0.00 in 0 W/m2
03:00 57.4 °F 53.9 °F 29.96 in SSW 1.0 mph 6.0 mph 88 % 0.00 in 0 W/m2
03:05 57.4 °F 53.9 °F 29.95 in SSW 2.0 mph 6.0 mph 88 % 0.00 in 0 W/m2
03:10 57.4 °F 53.9 °F 29.95 in SSW 2.0 mph 6.0 mph 88 % 0.00 in 0 W/m2
03:15 57.4 °F 53.9 °F 29.94 in SSW 1.0 mph 5.0 mph 88 % 0.00 in 0 W/m2
03:20 57.4 °F 53.9 °F 29.94 in SSW 1.0 mph 5.0 mph 88 % 0.00 in 0 W/m2
03:26 57.4 °F 53.9 °F 29.94 in SSE 2.0 mph 5.0 mph 88 % 0.00 in 0 W/m2
03:31 57.2 °F 53.7 °F 29.94 in SE 2.0 mph 6.0 mph 88 % 0.00 in 0 W/m2
03:36 57.2 °F 54.0 °F 29.94 in SE 2.0 mph 5.0 mph 89 % 0.00 in 0 W/m2
03:41 57.2 °F 54.0 °F 29.95 in South 2.0 mph 6.0 mph 89 % 0.00 in 0 W/m2
03:46 57.2 °F 54.0 °F 29.96 in SSW 4.0 mph 7.0 mph 89 % 0.00 in 0 W/m2
03:51 57.2 °F 54.0 °F 29.95 in SSW 4.0 mph 7.0 mph 89 % 0.00 in 0 W/m2
03:56 57.0 °F 53.8 °F 29.95 in SSW 1.0 mph 7.0 mph 89 % 0.00 in 0 W/m2
04:01 57.0 °F 53.8 °F 29.95 in Calm   4.0 mph 89 % 0.00 in 0 W/m2
04:06 56.8 °F 53.6 °F 29.95 in Calm     89 % 0.00 in 0 W/m2
04:11 56.8 °F 53.6 °F 29.94 in Calm     89 % 0.00 in 0 W/m2
04:16 56.8 °F 53.9 °F 29.94 in Calm   4.0 mph 90 % 0.00 in 0 W/m2
04:21 56.8 °F 53.9 °F 29.93 in Calm   4.0 mph 90 % 0.00 in 0 W/m2
04:26 56.7 °F 53.8 °F 29.93 in Calm   4.0 mph 90 % 0.00 in 0 W/m2
04:31 56.7 °F 53.8 °F 29.93 in South 1.0 mph 4.0 mph 90 % 0.00 in 0 W/m2
04:36 56.5 °F 53.6 °F 29.93 in SSE 1.0 mph 3.0 mph 90 % 0.00 in 0 W/m2
04:41 56.3 °F 53.7 °F 29.93 in SE 1.0 mph 4.0 mph 91 % 0.00 in 0 W/m2
04:46 56.1 °F 53.5 °F 29.93 in SE 1.0 mph 4.0 mph 91 % 0.00 in 0 W/m2
04:51 55.9 °F 53.4 °F 29.93 in SE 1.0 mph 4.0 mph 91 % 0.00 in 0 W/m2
04:56 55.9 °F 53.6 °F 29.93 in SE 2.0 mph 6.0 mph 92 % 0.00 in 0 W/m2
05:01 55.9 °F 53.6 °F 29.93 in ESE 3.0 mph 6.0 mph 92 % 0.00 in 0 W/m2
05:06 55.9 °F 53.9 °F 29.94 in ESE 3.0 mph 7.0 mph 93 % 0.00 in 0 W/m2
05:11 55.9 °F 53.9 °F 29.94 in ESE 2.0 mph 7.0 mph 93 % 0.00 in 0 W/m2
05:16 56.1 °F 54.1 °F 29.94 in ESE 2.0 mph 7.0 mph 93 % 0.00 in 0 W/m2
05:21 56.1 °F 54.1 °F 29.94 in ESE 2.0 mph 7.0 mph 93 % 0.00 in 0 W/m2
05:22 56.1 °F 54.1 °F 29.94 in ESE 2.0 mph 7.0 mph 93 % 0.00 in 0 W/m2
05:27 55.9 °F 53.9 °F 29.94 in SE 1.0 mph 5.0 mph 93 % 0.00 in 0 W/m2
05:32 55.9 °F 53.9 °F 29.94 in SSE 1.0 mph 6.0 mph 93 % 0.00 in 0 W/m2
05:37 55.9 °F 53.9 °F 29.94 in South 3.0 mph 7.0 mph 93 % 0.00 in 0 W/m2
05:42 55.9 °F 53.9 °F 29.94 in SSW 3.0 mph 7.0 mph 93 % 0.00 in 0 W/m2
05:47 56.1 °F 54.1 °F 29.94 in SW 4.0 mph 10.0 mph 93 % 0.00 in 0 W/m2
05:52 56.1 °F 54.1 °F 29.94 in SW 5.0 mph 10.0 mph 93 % 0.00 in 0 W/m2
05:57 56.5 °F 54.5 °F 29.94 in SW 3.0 mph 9.0 mph 93 % 0.00 in 0 W/m2
06:02 56.5 °F 54.5 °F 29.94 in SW 3.0 mph 6.0 mph 93 % 0.00 in 0 W/m2
06:07 56.7 °F 54.7 °F 29.94 in SSW 2.0 mph 6.0 mph 93 % 0.00 in 0 W/m2
06:12 56.8 °F 54.8 °F 29.94 in SSW 3.0 mph 8.0 mph 93 % 0.00 in 0 W/m2
06:17 56.8 °F 54.8 °F 29.93 in SSW 5.0 mph 9.0 mph 93 % 0.00 in 0 W/m2
06:22 56.8 °F 54.8 °F 29.94 in SSW 5.0 mph 11.0 mph 93 % 0.00 in 0 W/m2
06:27 56.8 °F 54.8 °F 29.93 in South 5.0 mph 11.0 mph 93 % 0.00 in 0 W/m2
06:32 57.0 °F 55.0 °F 29.93 in South 3.0 mph 8.0 mph 93 % 0.00 in 0 W/m2
06:37 56.8 °F 54.5 °F 29.92 in South 1.0 mph 5.0 mph 92 % 0.00 in 0 W/m2
06:42 56.8 °F 54.8 °F 29.92 in East 1.0 mph 5.0 mph 93 % 0.00 in 0 W/m2
06:47 56.8 °F 54.8 °F 29.96 in SSE 3.0 mph 15.0 mph 93 % 0.00 in 0 W/m2
06:52 57.0 °F 55.0 °F 29.96 in South 6.0 mph 15.0 mph 93 % 0.00 in 0 W/m2
06:57 57.2 °F 55.2 °F 29.94 in SSW 7.0 mph 12.0 mph 93 % 0.00 in 0 W/m2
07:02 57.4 °F 55.4 °F 29.93 in South 5.0 mph 10.0 mph 93 % 0.00 in 0 W/m2
07:07 57.4 °F 55.4 °F 29.92 in South 3.0 mph 10.0 mph 93 % 0.00 in 0 W/m2
07:12 57.4 °F 55.4 °F 29.92 in South 2.0 mph 10.0 mph 93 % 0.00 in 0 W/m2
07:17 57.4 °F 55.4 °F 29.92 in SSE 1.0 mph 5.0 mph 93 % 0.00 in 0 W/m2
07:22 57.4 °F 55.4 °F 29.92 in Calm   3.0 mph 93 % 0.00 in 0 W/m2
07:27 57.4 °F 55.4 °F 29.91 in SSE 1.0 mph 3.0 mph 93 % 0.00 in 0 W/m2
07:32 57.2 °F 55.2 °F 29.90 in SSE 2.0 mph 5.0 mph 93 % 0.00 in 0 W/m2
07:37 57.0 °F 55.0 °F 29.91 in SE 4.0 mph 8.0 mph 93 % 0.00 in 0 W/m2
07:43 56.8 °F 54.8 °F 29.91 in SE 5.0 mph 8.0 mph 93 % 0.00 in 0 W/m2
07:47 56.8 °F 54.8 °F 29.91 in ESE 4.0 mph 8.0 mph 93 % 0.00 in 5 W/m2
07:53 56.7 °F 54.7 °F 29.90 in ESE 4.0 mph 7.0 mph 93 % 0.00 in 5 W/m2
07:58 56.8 °F 55.1 °F 29.90 in ESE 4.0 mph 7.0 mph 94 % 0.00 in 5 W/m2
08:03 56.8 °F 55.1 °F 29.90 in SE 4.0 mph 7.0 mph 94 % 0.00 in 5 W/m2
08:08 56.8 °F 55.1 °F 29.90 in SE 3.0 mph 7.0 mph 94 % 0.00 in 9 W/m2
08:13 57.0 °F 55.3 °F 29.90 in SE 3.0 mph 7.0 mph 94 % 0.00 in 12 W/m2
08:18 57.0 °F 55.6 °F 29.90 in SE 3.0 mph 7.0 mph 95 % 0.00 in 12 W/m2
08:23 57.2 °F 55.8 °F 29.89 in SSE 4.0 mph 7.0 mph 95 % 0.00 in 11 W/m2
08:28 57.2 °F 55.8 °F 29.89 in SE 4.0 mph 7.0 mph 95 % 0.00 in 9 W/m2
08:33 57.4 °F 56.0 °F 29.88 in ESE 4.0 mph 8.0 mph 95 % 0.00 in 9 W/m2
08:38 57.4 °F 56.0 °F 29.88 in ESE 4.0 mph 8.0 mph 95 % 0.00 in 7 W/m2
08:43 57.4 °F 56.0 °F 29.88 in ESE 3.0 mph 7.0 mph 95 % 0.00 in 7 W/m2
08:48 57.4 °F 56.0 °F 29.88 in SE 4.0 mph 7.0 mph 95 % 0.00 in 5 W/m2
08:53 57.4 °F 56.0 °F 29.87 in SE 5.0 mph 11.0 mph 95 % 0.00 in 5 W/m2
08:54 57.4 °F 56.0 °F 29.87 in SE 5.0 mph 11.0 mph 95 % 0.00 in 7 W/m2
08:59 57.4 °F 56.0 °F 29.86 in SE 5.0 mph 11.0 mph 95 % 0.00 in 12 W/m2
09:04 57.6 °F 56.1 °F 29.86 in ESE 5.0 mph 9.0 mph 95 % 0.00 in 16 W/m2
09:09 57.6 °F 56.1 °F 29.86 in SE 6.0 mph 10.0 mph 95 % 0.00 in 25 W/m2
09:14 57.6 °F 56.1 °F 29.87 in SE 6.0 mph 13.0 mph 95 % 0.00 in 25 W/m2
09:19 57.7 °F 56.6 °F 29.87 in SE 7.0 mph 13.0 mph 96 % 0.00 in 28 W/m2
09:24 57.7 °F 56.6 °F 29.87 in SE 7.0 mph 13.0 mph 96 % 0.00 in 35 W/m2
09:29 57.7 °F 56.6 °F 29.86 in SE 8.0 mph 16.0 mph 96 % 0.00 in 40 W/m2
09:34 57.9 °F 56.8 °F 29.86 in SE 9.0 mph 16.0 mph 96 % 0.00 in 35 W/m2
09:39 57.9 °F 56.8 °F 29.86 in SE 9.0 mph 16.0 mph 96 % 0.00 in 40 W/m2
09:44 57.9 °F 56.8 °F 29.87 in SE 8.0 mph 16.0 mph 96 % 0.00 in 37 W/m2
09:49 57.9 °F 56.8 °F 29.87 in SE 7.0 mph 13.0 mph 96 % 0.00 in 44 W/m2
09:54 58.1 °F 57.0 °F 29.87 in SSE 7.0 mph 13.0 mph 96 % 0.00 in 67 W/m2
09:59 58.3 °F 57.1 °F 29.87 in SSE 7.0 mph 13.0 mph 96 % 0.00 in 53 W/m2
10:04 58.5 °F 57.3 °F 29.87 in SSE 7.0 mph 12.0 mph 96 % 0.00 in 47 W/m2
10:14 58.6 °F 57.5 °F 29.85 in SE 8.0 mph 12.0 mph 96 % 0.00 in 84 W/m2
10:16 58.6 °F 57.5 °F 29.85 in SE 8.0 mph 16.0 mph 96 % 0.00 in 91 W/m2
10:21 58.6 °F 57.5 °F 29.85 in SE 9.0 mph 16.0 mph 96 % 0.00 in 130 W/m2
10:26 58.8 °F 57.7 °F 29.85 in SE 9.0 mph 16.0 mph 96 % 0.00 in 241 W/m2
10:31 59.2 °F 58.0 °F 29.84 in SE 9.0 mph 15.0 mph 96 % 0.00 in 301 W/m2
10:36 59.5 °F 58.4 °F 29.84 in SE 9.0 mph 13.0 mph 96 % 0.00 in 244 W/m2
10:41 59.9 °F 58.8 °F 29.84 in SE 8.0 mph 13.0 mph 96 % 0.00 in 141 W/m2
10:46 60.1 °F 58.6 °F 29.83 in SE 9.0 mph 20.0 mph 95 % 0.00 in 156 W/m2
10:52 60.1 °F 58.6 °F 29.83 in SE 10.0 mph 20.0 mph 95 % 0.00 in 179 W/m2
10:57 60.1 °F 58.3 °F 29.83 in SE 10.0 mph 16.0 mph 94 % 0.00 in 185 W/m2
11:02 60.3 °F 58.5 °F 29.83 in SSE 9.0 mph 15.0 mph 94 % 0.00 in 199 W/m2
11:07 60.3 °F 58.5 °F 29.83 in SE 10.0 mph 16.0 mph 94 % 0.00 in 207 W/m2
11:12 60.4 °F 58.4 °F 29.83 in SE 10.0 mph 16.0 mph 93 % 0.00 in 207 W/m2
11:17 60.6 °F 58.6 °F 29.83 in SE 9.0 mph 15.0 mph 93 % 0.00 in 179 W/m2
11:22 61.0 °F 58.9 °F 29.83 in SSE 8.0 mph 15.0 mph 93 % 0.00 in 146 W/m2
11:27 61.2 °F 58.8 °F 29.82 in SSE 8.0 mph 15.0 mph 92 % 0.00 in 105 W/m2
11:32 61.3 °F 59.0 °F 29.82 in SSE 9.0 mph 15.0 mph 92 % 0.00 in 88 W/m2
11:37 61.3 °F 59.0 °F 29.82 in SSE 9.0 mph 14.0 mph 92 % 0.00 in 90 W/m2
11:42 61.5 °F 59.2 °F 29.81 in SSE 9.0 mph 14.0 mph 92 % 0.00 in 102 W/m2
11:47 61.5 °F 59.2 °F 29.81 in SSE 8.0 mph 13.0 mph 92 % 0.00 in 123 W/m2
11:52 61.9 °F 59.2 °F 29.82 in SSE 8.0 mph 15.0 mph 91 % 0.00 in 127 W/m2
11:57 61.9 °F 59.2 °F 29.81 in SSE 8.0 mph 15.0 mph 91 % 0.00 in 116 W/m2
12:02 62.1 °F 59.4 °F 29.81 in South 7.0 mph 13.0 mph 91 % 0.00 in 127 W/m2
12:07 62.1 °F 59.4 °F 29.81 in SSE 5.0 mph 11.0 mph 91 % 0.00 in 134 W/m2
12:12 62.2 °F 59.6 °F 29.80 in SSE 3.0 mph 8.0 mph 91 % 0.00 in 139 W/m2
12:17 62.4 °F 59.8 °F 29.80 in South 3.0 mph 8.0 mph 91 % 0.00 in 171 W/m2
12:22 62.8 °F 60.1 °F 29.80 in SSE 4.0 mph 8.0 mph 91 % 0.00 in 172 W/m2
12:27 63.0 °F 60.0 °F 29.79 in SSE 5.0 mph 10.0 mph 90 % 0.00 in 156 W/m2
12:32 63.3 °F 60.3 °F 29.78 in SSE 5.0 mph 11.0 mph 90 % 0.00 in 128 W/m2
12:39 63.7 °F 60.7 °F 29.78 in SSE 7.0 mph 10.0 mph 90 % 0.00 in 109 W/m2
12:44 63.9 °F 60.6 °F 29.77 in SSE 9.0 mph 15.0 mph 89 % 0.00 in 93 W/m2
12:49 64.0 °F 60.7 °F 29.77 in SSE 9.0 mph 15.0 mph 89 % 0.00 in 74 W/m2
12:54 64.2 °F 60.6 °F 29.77 in SSE 8.0 mph 15.0 mph 88 % 0.00 in 77 W/m2
12:59 64.4 °F 60.8 °F 29.77 in SSE 9.0 mph 14.0 mph 88 % 0.00 in 77 W/m2
13:04 64.6 °F 60.9 °F 29.76 in SSE 9.0 mph 14.0 mph 88 % 0.00 in 102 W/m2
13:09 64.8 °F 60.8 °F 29.76 in SSE 8.0 mph 13.0 mph 87 % 0.00 in 97 W/m2
13:14 64.9 °F 61.0 °F 29.76 in SSE 8.0 mph 15.0 mph 87 % 0.00 in 72 W/m2
13:19 65.1 °F 60.8 °F 29.77 in South 9.0 mph 19.0 mph 86 % 0.00 in 51 W/m2
13:24 65.5 °F 60.8 °F 29.76 in South 10.0 mph 20.0 mph 85 % 0.00 in 54 W/m2
13:29 65.5 °F 60.8 °F 29.76 in South 10.0 mph 20.0 mph 85 % 0.00 in 54 W/m2
13:34 65.7 °F 60.7 °F 29.76 in South 11.0 mph 22.0 mph 84 % 0.00 in 65 W/m2
13:39 65.8 °F 60.5 °F 29.76 in South 13.0 mph 24.0 mph 83 % 0.00 in 76 W/m2
13:44 66.0 °F 60.7 °F 29.76 in South 12.0 mph 24.0 mph 83 % 0.00 in 60 W/m2
13:49 66.2 °F 60.5 °F 29.76 in South 14.0 mph 36.0 mph 82 % 0.00 in 74 W/m2
13:54 66.4 °F 60.4 °F 29.75 in South 16.0 mph 36.0 mph 81 % 0.00 in 77 W/m2
13:59 66.4 °F 60.0 °F 29.76 in South 16.0 mph 30.0 mph 80 % 0.00 in 67 W/m2
14:04 66.4 °F 59.7 °F 29.75 in South 16.0 mph 29.0 mph 79 % 0.00 in 63 W/m2
14:09 66.6 °F 59.8 °F 29.75 in South 15.0 mph 26.0 mph 79 % 0.00 in 74 W/m2
14:14 66.4 °F 59.7 °F 29.75 in South 14.0 mph 26.0 mph 79 % 0.00 in 88 W/m2
14:19 66.4 °F 59.7 °F 29.75 in South 14.0 mph 26.0 mph 79 % 0.00 in 109 W/m2
14:24 66.4 °F 59.3 °F 29.74 in SSW 15.0 mph 27.0 mph 78 % 0.00 in 123 W/m2
14:29 66.4 °F 59.3 °F 29.74 in SSW 14.0 mph 27.0 mph 78 % 0.00 in 125 W/m2
14:34 66.4 °F 58.9 °F 29.74 in South 15.0 mph 26.0 mph 77 % 0.00 in 139 W/m2
14:39 66.4 °F 58.9 °F 29.73 in South 15.0 mph 26.0 mph 77 % 0.00 in 197 W/m2
14:44 66.6 °F 59.1 °F 29.72 in South 15.0 mph 28.0 mph 77 % 0.00 in 258 W/m2
14:49 66.7 °F 58.9 °F 29.72 in South 15.0 mph 28.0 mph 76 % 0.00 in 264 W/m2
14:54 66.7 °F 58.6 °F 29.72 in South 14.0 mph 25.0 mph 75 % 0.00 in 167 W/m2
14:59 66.7 °F 58.6 °F 29.72 in South 15.0 mph 27.0 mph 75 % 0.00 in 345 W/m2
15:04 66.9 °F 58.4 °F 29.72 in SSW 15.0 mph 31.0 mph 74 % 0.00 in 278 W/m2
15:09 67.3 °F 57.9 °F 29.72 in SSW 15.0 mph 31.0 mph 72 % 0.00 in 348 W/m2
15:14 67.5 °F 57.7 °F 29.72 in SSW 16.0 mph 31.0 mph 71 % 0.00 in 406 W/m2
15:19 67.6 °F 57.9 °F 29.72 in SSW 17.0 mph 31.0 mph 71 % 0.00 in 343 W/m2
15:24 67.8 °F 58.1 °F 29.71 in South 14.0 mph 25.0 mph 71 % 0.00 in 355 W/m2
15:29 67.6 °F 57.9 °F 29.71 in South 14.0 mph 25.0 mph 71 % 0.00 in 304 W/m2
15:34 67.6 °F 57.5 °F 29.71 in South 16.0 mph 28.0 mph 70 % 0.00 in 292 W/m2
15:39 67.5 °F 56.1 °F 29.71 in South 18.0 mph 30.0 mph 67 % 0.00 in 290 W/m2
15:44 67.5 °F 55.7 °F 29.71 in South 18.0 mph 34.0 mph 66 % 0.00 in 269 W/m2
15:49 67.3 °F 55.5 °F 29.70 in South 19.0 mph 34.0 mph 66 % 0.00 in 248 W/m2
15:54 67.1 °F 54.9 °F 29.71 in SSW 21.0 mph 34.0 mph 65 % 0.00 in 178 W/m2
15:59 66.9 °F 55.2 °F 29.71 in SSW 20.0 mph 34.0 mph 66 % 0.00 in 237 W/m2
16:05 66.7 °F 54.6 °F 29.70 in SSW 18.0 mph 32.0 mph 65 % 0.00 in 221 W/m2
16:10 66.7 °F 54.6 °F 29.71 in SSW 17.0 mph 34.0 mph 65 % 0.00 in 221 W/m2
16:15 66.6 °F 54.4 °F 29.71 in SSW 17.0 mph 34.0 mph 65 % 0.00 in 209 W/m2
16:20 66.4 °F 53.8 °F 29.71 in SSW 18.0 mph 30.0 mph 64 % 0.00 in 199 W/m2
16:25 66.4 °F 53.4 °F 29.71 in SSW 18.0 mph 31.0 mph 63 % 0.00 in 193 W/m2
16:30 66.4 °F 53.4 °F 29.71 in SSW 18.0 mph 31.0 mph 63 % 0.00 in 185 W/m2
16:35 66.2 °F 53.2 °F 29.71 in SSW 16.0 mph 29.0 mph 63 % 0.00 in 91 W/m2
16:40 66.2 °F 53.2 °F 29.70 in SSW 15.0 mph 26.0 mph 63 % 0.00 in 84 W/m2
16:45 66.0 °F 51.3 °F 29.71 in SSW 16.0 mph 31.0 mph 59 % 0.00 in 58 W/m2
16:50 65.8 °F 50.2 °F 29.70 in SSW 20.0 mph 36.0 mph 57 % 0.00 in 56 W/m2
16:55 65.7 °F 50.0 °F 29.71 in SSW 20.0 mph 36.0 mph 57 % 0.00 in 54 W/m2
17:00 65.7 °F 49.5 °F 29.71 in SSW 20.0 mph 38.0 mph 56 % 0.00 in 49 W/m2
17:05 65.5 °F 47.9 °F 29.70 in SSW 22.0 mph 40.0 mph 53 % 0.00 in 47 W/m2
17:10 65.1 °F 47.1 °F 29.70 in SSW 22.0 mph 40.0 mph 52 % 0.00 in 44 W/m2
17:15 64.8 °F 46.7 °F 29.71 in SSW 21.0 mph 40.0 mph 52 % 0.00 in 37 W/m2
17:20 64.2 °F 46.2 °F 29.70 in SSW 21.0 mph 40.0 mph 52 % 0.00 in 35 W/m2
17:25 63.9 °F 46.9 °F 29.71 in SSW 22.0 mph 42.0 mph 54 % 0.00 in 32 W/m2
17:30 63.7 °F 46.7 °F 29.71 in SSW 23.0 mph 42.0 mph 54 % 0.00 in 28 W/m2
17:35 63.3 °F 46.9 °F 29.71 in SSW 23.0 mph 38.0 mph 55 % 0.00 in 21 W/m2
17:40 63.1 °F 47.7 °F 29.70 in SSW 19.0 mph 37.0 mph 57 % 0.00 in 18 W/m2
17:45 62.8 °F 47.3 °F 29.70 in SSW 17.0 mph 34.0 mph 57 % 0.00 in 14 W/m2
17:50 62.6 °F 47.1 °F 29.70 in SSW 18.0 mph 34.0 mph 57 % 0.00 in 12 W/m2
17:55 62.4 °F 47.9 °F 29.70 in SSW 19.0 mph 34.0 mph 59 % 0.00 in 9 W/m2
18:00 62.2 °F 47.7 °F 29.70 in SSW 20.0 mph 34.0 mph 59 % 0.00 in 7 W/m2
18:05 62.2 °F 48.2 °F 29.71 in SSW 19.0 mph 34.0 mph 60 % 0.00 in 5 W/m2
18:10 62.1 °F 47.6 °F 29.71 in SSW 19.0 mph 33.0 mph 59 % 0.00 in 0 W/m2
18:15 61.9 °F 47.4 °F 29.72 in SSW 19.0 mph 32.0 mph 59 % 0.00 in 0 W/m2
18:20 61.7 °F 46.3 °F 29.72 in SW 20.0 mph 42.0 mph 57 % 0.00 in 0 W/m2
18:26 61.7 °F 46.3 °F 29.73 in SW 21.0 mph 42.0 mph 57 % 0.00 in 0 W/m2
18:31 61.5 °F 46.6 °F 29.73 in SSW 20.0 mph 33.0 mph 58 % 0.00 in 0 W/m2
18:36 61.5 °F 46.6 °F 29.72 in SSW 21.0 mph 36.0 mph 58 % 0.00 in 0 W/m2
18:41 61.3 °F 46.9 °F 29.73 in SSW 20.0 mph 36.0 mph 59 % 0.00 in 0 W/m2
18:46 61.3 °F 46.4 °F 29.73 in SSW 20.0 mph 34.0 mph 58 % 0.00 in 0 W/m2
18:51 61.3 °F 46.9 °F 29.73 in SSW 21.0 mph 34.0 mph 59 % 0.00 in 0 W/m2
18:56 61.2 °F 46.7 °F 29.73 in SSW 17.0 mph 31.0 mph 59 % 0.00 in 0 W/m2
19:01 61.0 °F 47.0 °F 29.72 in SSW 16.0 mph 32.0 mph 60 % 0.00 in 0 W/m2
19:06 60.8 °F 47.3 °F 29.73 in SW 16.0 mph 32.0 mph 61 % 0.00 in 0 W/m2
19:11 60.6 °F 47.1 °F 29.73 in SSW 15.0 mph 32.0 mph 61 % 0.00 in 0 W/m2
19:16 60.4 °F 46.9 °F 29.74 in SW 15.0 mph 32.0 mph 61 % 0.00 in 0 W/m2
19:21 60.4 °F 46.5 °F 29.73 in SW 16.0 mph 29.0 mph 60 % 0.00 in 0 W/m2
19:26 60.4 °F 46.9 °F 29.74 in SW 16.0 mph 34.0 mph 61 % 0.00 in 0 W/m2
19:31 60.3 °F 46.8 °F 29.73 in SSW 12.0 mph 34.0 mph 61 % 0.00 in 0 W/m2
19:36 60.1 °F 46.6 °F 29.74 in SSW 12.0 mph 29.0 mph 61 % 0.00 in 0 W/m2
19:41 60.1 °F 47.0 °F 29.74 in SSW 15.0 mph 32.0 mph 62 % 0.00 in 0 W/m2
19:46 60.1 °F 46.6 °F 29.75 in SW 15.0 mph 32.0 mph 61 % 0.00 in 0 W/m2
19:51 60.1 °F 46.6 °F 29.74 in SW 15.0 mph 26.0 mph 61 % 0.00 in 0 W/m2
19:56 60.3 °F 46.3 °F 29.75 in SW 17.0 mph 39.0 mph 60 % 0.00 in 0 W/m2
20:01 60.1 °F 46.1 °F 29.76 in SW 18.0 mph 39.0 mph 60 % 0.00 in 0 W/m2
20:06 60.1 °F 45.7 °F 29.77 in SW 21.0 mph 39.0 mph 59 % 0.00 in 0 W/m2
20:11 60.1 °F 46.1 °F 29.76 in SW 24.0 mph 40.0 mph 60 % 0.00 in 0 W/m2
20:16 59.9 °F 46.0 °F 29.76 in SW 22.0 mph 40.0 mph 60 % 0.00 in 0 W/m2
20:20 59.7 °F 45.8 °F 29.75 in SW 20.0 mph 38.0 mph 60 % 0.00 in 0 W/m2
20:25 59.5 °F 46.1 °F 29.75 in SW 18.0 mph 30.0 mph 61 % 0.00 in 0 W/m2
20:30 59.5 °F 46.1 °F 29.75 in SW 18.0 mph 30.0 mph 61 % 0.00 in 0 W/m2
20:35 59.4 °F 46.3 °F 29.75 in SW 19.0 mph 31.0 mph 62 % 0.00 in 0 W/m2
20:40 59.4 °F 46.3 °F 29.74 in SW 20.0 mph 36.0 mph 62 % 0.00 in 0 W/m2
20:45 59.2 °F 46.6 °F 29.76 in SSW 22.0 mph 44.0 mph 63 % 0.00 in 0 W/m2
20:50 59.2 °F 46.6 °F 29.74 in SW 24.0 mph 44.0 mph 63 % 0.00 in 0 W/m2
20:52 59.0 °F 46.4 °F 29.74 in SW 25.0 mph 44.0 mph 63 % 0.00 in 0 W/m2
20:57 58.8 °F 46.2 °F 29.74 in SW 24.0 mph 39.0 mph 63 % 0.00 in 0 W/m2
21:02 58.8 °F 46.2 °F 29.74 in SW 22.0 mph 35.0 mph 63 % 0.00 in 0 W/m2
21:07 58.6 °F 46.1 °F 29.74 in SW 21.0 mph 42.0 mph 63 % 0.00 in 0 W/m2
21:12 58.6 °F 46.1 °F 29.74 in SW 24.0 mph 44.0 mph 63 % 0.00 in 0 W/m2
21:17 58.6 °F 46.5 °F 29.74 in SW 25.0 mph 44.0 mph 64 % 0.00 in 0 W/m2
21:23 58.5 °F 46.3 °F 29.74 in SW 24.0 mph 39.0 mph 64 % 0.00 in 0 W/m2
21:28 58.5 °F 46.3 °F 29.74 in SW 22.0 mph 40.0 mph 64 % 0.00 in 0 W/m2
21:33 58.5 °F 46.3 °F 29.74 in SW 20.0 mph 40.0 mph 64 % 0.00 in 0 W/m2
21:38 58.5 °F 46.3 °F 29.74 in SW 21.0 mph 36.0 mph 64 % 0.00 in 0 W/m2
21:43 58.3 °F 46.2 °F 29.74 in SW 21.0 mph 36.0 mph 64 % 0.00 in 0 W/m2
21:48 58.3 °F 45.7 °F 29.74 in SW 22.0 mph 37.0 mph 63 % 0.00 in 0 W/m2
21:53 58.3 °F 46.2 °F 29.74 in SW 22.0 mph 38.0 mph 64 % 0.00 in 0 W/m2
21:58 58.1 °F 46.0 °F 29.75 in SW 20.0 mph 38.0 mph 64 % 0.00 in 0 W/m2
22:03 57.9 °F 46.2 °F 29.75 in SW 20.0 mph 35.0 mph 65 % 0.00 in 0 W/m2
22:08 57.9 °F 46.6 °F 29.75 in SW 22.0 mph 40.0 mph 66 % 0.00 in 0 W/m2
22:13 57.9 °F 46.6 °F 29.76 in SW 21.0 mph 40.0 mph 66 % 0.00 in 0 W/m2
22:18 57.7 °F 46.9 °F 29.76 in SW 17.0 mph 32.0 mph 67 % 0.00 in 0 W/m2
22:23 57.7 °F 46.5 °F 29.76 in SW 17.0 mph 34.0 mph 66 % 0.00 in 0 W/m2
22:28 57.7 °F 46.0 °F 29.75 in SW 20.0 mph 34.0 mph 65 % 0.00 in 0 W/m2
22:33 57.9 °F 45.4 °F 29.74 in SW 23.0 mph 46.0 mph 63 % 0.00 in 0 W/m2
22:38 57.9 °F 45.8 °F 29.76 in SW 26.0 mph 46.0 mph 64 % 0.00 in 0 W/m2
22:43 57.9 °F 45.4 °F 29.76 in SW 28.0 mph 49.0 mph 63 % 0.00 in 0 W/m2
22:48 57.9 °F 45.4 °F 29.76 in SW 27.0 mph 49.0 mph 63 % 0.00 in 0 W/m2
22:53 57.7 °F 45.2 °F 29.77 in SW 21.0 mph 42.0 mph 63 % 0.00 in 0 W/m2
22:58 57.9 °F 45.4 °F 29.77 in SW 21.0 mph 45.0 mph 63 % 0.00 in 0 W/m2
23:03 57.9 °F 45.0 °F 29.77 in WSW 25.0 mph 45.0 mph 62 % 0.00 in 0 W/m2
23:08 57.9 °F 45.4 °F 29.78 in WSW 25.0 mph 46.0 mph 63 % 0.00 in 0 W/m2
23:13 57.7 °F 45.6 °F 29.77 in SW 24.0 mph 46.0 mph 64 % 0.00 in 0 W/m2
23:18 57.6 °F 45.9 °F 29.77 in SW 21.0 mph 39.0 mph 65 % 0.00 in 0 W/m2
23:23 57.6 °F 45.9 °F 29.77 in SW 20.0 mph 39.0 mph 65 % 0.00 in 0 W/m2
23:28 57.6 °F 45.5 °F 29.76 in SW 23.0 mph 46.0 mph 64 % 0.00 in 0 W/m2
23:33 57.7 °F 45.6 °F 29.76 in SW 24.0 mph 46.0 mph 64 % 0.00 in 0 W/m2
23:38 57.6 °F 45.9 °F 29.77 in SW 21.0 mph 43.0 mph 65 % 0.00 in 0 W/m2
23:43 57.6 °F 45.9 °F 29.76 in SW 22.0 mph 44.0 mph 65 % 0.00 in 0 W/m2
23:48 57.6 °F 45.9 °F 29.77 in SW 23.0 mph 44.0 mph 65 % 0.00 in 0 W/m2
23:53 57.6 °F 45.9 °F 29.77 in SW 21.0 mph 35.0 mph 65 % 0.00 in 0 W/m2
23:58 57.4 °F 45.7 °F 29.77 in SW 18.0 mph 31.0 mph 65 % 0.00 in 0 W/m2
Delerius-Weather
Compliments of Weather Underground - 2.25 mb

Data updates at regular intervals.